| time (UTC) | temp F | wind direction | speed knots | gust knots | rain 1hr in | rain 24hr in | rain mn in | humidity % | barometer mb |
| 20260505181022 | 51 | 0.0 | 0.0 | 0.02 | 0.17 | 0.17 | 90 | 1008.2 | |
| 20260505180027 | 51 | 0.0 | 0.0 | 0.02 | 0.17 | 0.17 | 90 | 1008.2 | |
| 20260505175018 | 52 | 0.0 | 0.0 | 0.01 | 0.16 | 0.16 | 90 | 1008.2 | |
| 20260505174028 | 52 | 0.0 | 0.0 | 0.00 | 0.15 | 0.15 | 90 | 1008.3 | |
| 20260505173018 | 52 | 0.0 | 0.0 | 0.00 | 0.15 | 0.15 | 90 | 1008.2 | |
| 20260505172018 | 52 | 0.0 | 0.0 | 0.00 | 0.15 | 0.15 | 90 | 1008.2 | |
| 20260505171020 | 51 | 0.0 | 0.0 | 0.00 | 0.16 | 0.15 | 90 | 1008.3 | |
| 20260505170117 | 52 | 0.0 | 0.0 | 0.00 | 0.16 | 0.15 | 90 | 1008.3 | |
| 20260505165016 | 52 | 0.0 | 0.0 | 0.00 | 0.16 | 0.15 | 90 | 1008.3 | |
| 20260505164051 | 52 | 0.0 | 0.0 | 0.00 | 0.16 | 0.15 | 89 | 1008.3 | |
| 20260505163016 | 52 | 0.0 | 0.0 | 0.00 | 0.16 | 0.15 | 89 | 1008.3 | |
| 20260505162039 | 52 | 0.0 | 0.0 | 0.00 | 0.16 | 0.15 | 89 | 1008.4 | |
| 20260505161015 | 52 | 0.0 | 0.0 | 0.00 | 0.16 | 0.15 | 89 | 1008.4 | |
| 20260505153025 | 52 | 0.0 | 0.0 | 0.00 | 0.16 | 0.15 | 88 | 1008.6 | |
| 20260505152021 | 52 | 0.0 | 0.0 | 0.00 | 0.16 | 0.15 | 88 | 1008.6 | |
| 20260505151030 | 52 | 0.0 | 0.0 | 0.00 | 0.17 | 0.15 | 88 | 1008.6 | |
| 20260505125034 | 52 | 0.0 | 0.0 | 0.00 | 0.17 | 0.15 | 88 | 1009.3 | |
| 20260505124020 | 52 | 0.0 | 0.0 | 0.00 | 0.17 | 0.15 | 88 | 1009.3 | |
| 20260505123016 | 52 | 0.0 | 0.0 | 0.00 | 0.17 | 0.15 | 88 | 1009.3 | |
| 20260505122021 | 52 | 0.0 | 0.0 | 0.00 | 0.17 | 0.15 | 87 | 1009.3 | |
| 20260505121019 | 52 | 0.0 | 0.0 | 0.00 | 0.17 | 0.15 | 88 | 1009.4 | |
| 20260505120016 | 52 | 0.0 | 0.0 | 0.00 | 0.17 | 0.15 | 88 | 1009.4 | |
| 20260505115016 | 52 | 0.0 | 0.0 | 0.00 | 0.17 | 0.15 | 88 | 1009.4 | |
| 20260505114046 | 52 | 0.0 | 0.0 | 0.00 | 0.17 | 0.15 | 88 | 1009.5 | |
| 20260505113041 | 52 | 0.0 | 0.0 | 0.00 | 0.17 | 0.15 | 88 | 1009.6 | |
| 20260505112018 | 52 | 0.0 | 0.0 | 0.00 | 0.17 | 0.15 | 87 | 1009.6 | |
| 20260505111017 | 53 | 0.0 | 0.0 | 0.00 | 0.17 | 0.15 | 87 | 1009.6 | |
| 20260505102040 | 52 | 0.0 | 0.0 | 0.01 | 0.17 | 0.15 | 87 | 1009.6 | |
| 20260505101026 | 52 | 0.0 | 0.0 | 0.01 | 0.17 | 0.15 | 88 | 1009.7 | |
| 20260505100025 | 52 | 0.0 | 0.0 | 0.01 | 0.17 | 0.15 | 88 | 1009.8 | |
| 20260505095017 | 53 | 0.0 | 0.0 | 0.01 | 0.17 | 0.15 | 88 | 1009.8 | |
| 20260505094023 | 53 | 0.0 | 0.0 | 0.01 | 0.17 | 0.14 | 87 | 1009.8 | |
| 20260505093022 | 53 | 0.0 | 0.0 | 0.01 | 0.17 | 0.14 | 88 | 1009.8 | |
| 20260505092021 | 53 | 0.0 | 0.0 | 0.02 | 0.17 | 0.14 | 88 | 1009.8 | |
| 20260505091021 | 53 | 0.0 | 0.0 | 0.02 | 0.17 | 0.14 | 88 | 1009.8 | |
| 20260505090020 | 53 | 0.0 | 0.0 | 0.02 | 0.17 | 0.14 | 88 | 1009.8 | |
| 20260505085045 | 53 | 0.0 | 0.0 | 0.02 | 0.17 | 0.14 | 87 | 1009.8 | |
| 20260505084020 | 53 | 0.0 | 0.0 | 0.01 | 0.16 | 0.13 | 87 | 1009.8 | |
| 20260505083020 | 53 | 0.0 | 0.0 | 0.01 | 0.16 | 0.13 | 87 | 1009.9 | |
| 20260505082018 | 53 | 0.0 | 0.0 | 0.00 | 0.15 | 0.13 | 88 | 1009.8 | |
| 20260505081016 | 53 | 0.0 | 0.0 | 0.00 | 0.15 | 0.13 | 88 | 1009.8 | |
| 20260505080019 | 53 | 0.0 | 0.0 | 0.00 | 0.15 | 0.13 | 88 | 1009.8 | |
| 20260505075016 | 53 | 0.0 | 0.0 | 0.00 | 0.15 | 0.13 | 88 | 1009.8 | |
| 20260505074020 | 53 | 0.0 | 0.0 | 0.01 | 0.15 | 0.13 | 88 | 1009.8 | |
| 20260505073021 | 53 | 0.0 | 0.0 | 0.01 | 0.15 | 0.13 | 88 | 1009.8 | |
| 20260505072024 | 54 | 0.0 | 0.0 | 0.01 | 0.15 | 0.13 | 88 | 1009.8 | |
| 20260505071036 | 54 | 0.0 | 0.0 | 0.01 | 0.15 | 0.13 | 88 | 1009.8 | |
| 20260505070023 | 54 | 0.0 | 0.0 | 0.01 | 0.15 | 0.13 | 87 | 1009.8 | |
| 20260505065041 | 54 | 0.0 | 0.0 | 0.01 | 0.15 | 0.13 | 87 | 1009.9 | |
| 20260505064020 | 54 | 0.0 | 0.0 | 0.00 | 0.14 | 0.12 | 88 | 1009.9 | |
| 20260505063039 | 54 | 0.0 | 0.0 | 0.00 | 0.14 | 0.12 | 88 | 1009.9 | |
| 20260505062027 | 55 | 0.0 | 0.0 | 0.00 | 0.14 | 0.12 | 87 | 1009.9 | |
| 20260505061058 | 55 | 0.0 | 0.0 | 0.01 | 0.14 | 0.12 | 87 | 1009.9 | |
| 20260505060022 | 55 | 0.0 | 0.0 | 0.02 | 0.14 | 0.12 | 87 | 1009.9 | |
| 20260505055024 | 55 | 0.0 | 0.0 | 0.03 | 0.14 | 0.12 | 87 | 1010.0 | |
| 20260505054018 | 55 | 0.0 | 0.0 | 0.04 | 0.14 | 0.12 | 87 | 1010.0 | |
| 20260505053019 | 55 | 0.0 | 0.0 | 0.04 | 0.14 | 0.12 | 87 | 1009.9 | |
| 20260505052016 | 55 | 0.0 | 0.0 | 0.06 | 0.14 | 0.12 | 88 | 1009.9 | |
| 20260505051027 | 55 | 0.0 | 0.0 | 0.05 | 0.13 | 0.11 | 88 | 1009.9 | |
| 20260505041024 | 55 | 0.0 | 0.0 | 0.02 | 0.09 | 0.06 | 87 | 1009.9 | |
| 20260505040019 | 55 | 0.0 | 0.0 | 0.03 | 0.09 | 0.06 | 87 | 1009.9 | |
| 20260505035017 | 55 | 0.0 | 0.0 | 0.03 | 0.09 | 0.06 | 88 | 1009.9 | |
| 20260505034021 | 55 | 0.0 | 0.0 | 0.03 | 0.09 | 0.06 | 88 | 1010.0 | |
| 20260505033016 | 55 | 0.0 | 0.0 | 0.03 | 0.08 | 0.06 | 87 | 1010.0 | |
| 20260505032041 | 55 | 0.0 | 0.0 | 0.04 | 0.08 | 0.06 | 87 | 1010.1 | |
| 20260505031039 | 55 | 0.0 | 0.0 | 0.04 | 0.07 | 0.05 | 87 | 1010.1 | |
| 20260505030038 | 55 | 0.0 | 0.0 | 0.02 | 0.06 | 0.03 | 87 | 1010.2 | |
| 20260505025016 | 55 | 0.0 | 0.0 | 0.02 | 0.06 | 0.03 | 87 | 1010.3 | |
| 20260505024020 | 55 | 0.0 | 0.0 | 0.02 | 0.06 | 0.03 | 88 | 1010.3 | |
| 20260505023023 | 55 | 0.0 | 0.0 | 0.02 | 0.05 | 0.02 | 88 | 1010.3 | |
| 20260505022017 | 55 | 0.0 | 0.0 | 0.01 | 0.04 | 0.02 | 88 | 1010.3 | |
| 20260505021021 | 55 | 0.0 | 0.0 | 0.00 | 0.03 | 0.01 | 88 | 1010.4 | |
| 20260505020018 | 55 | 0.0 | 0.0 | 0.00 | 0.03 | 0.01 | 88 | 1010.4 | |
| 20260505015017 | 55 | 0.0 | 0.0 | 0.00 | 0.03 | 0.01 | 88 | 1010.3 | |
| 20260505014046 | 55 | 0.0 | 0.0 | 0.00 | 0.03 | 0.01 | 88 | 1010.3 | |
| 20260505013017 | 55 | 0.0 | 0.0 | 0.00 | 0.03 | 0.01 | 88 | 1010.4 | |
| 20260505012039 | 55 | 0.0 | 0.0 | 0.00 | 0.03 | 0.01 | 88 | 1010.5 | |
| 20260505011031 | 55 | 0.0 | 0.0 | 0.00 | 0.03 | 0.01 | 87 | 1010.6 | |
| 20260505010042 | 55 | 0.0 | 0.0 | 0.01 | 0.03 | 0.01 | 88 | 1010.7 | |
| 20260505005017 | 54 | 0.0 | 0.0 | 0.01 | 0.03 | 0.01 | 88 | 1010.8 | |
| 20260505004034 | 54 | 0.0 | 0.0 | 0.01 | 0.03 | 0.01 | 88 | 1010.9 | |
| 20260505003021 | 54 | 0.0 | 0.0 | 0.01 | 0.03 | 0.01 | 89 | 1011.0 | |
| 20260505002020 | 54 | 0.0 | 0.0 | 0.01 | 0.03 | 0.01 | 89 | 1011.0 | |
| 20260505001020 | 54 | 0.0 | 0.0 | 0.01 | 0.03 | 0.01 | 89 | 1011.0 | |
| 20260505000038 | 54 | 0.0 | 0.0 | 0.00 | 0.02 | 0.00 | 89 | 1011.1 | |
| 20260504235018 | 54 | 0.0 | 0.0 | 0.00 | 0.02 | 0.00 | 90 | 1011.1 | |
| 20260504234022 | 54 | 0.0 | 0.0 | 0.00 | 0.02 | 0.00 | 90 | 1011.2 | |
| 20260504233100 | 55 | 0.0 | 0.0 | 0.00 | 0.02 | 0.00 | 90 | 1011.2 | |
| 20260504232029 | 55 | 0.0 | 0.0 | 0.00 | 0.02 | 0.00 | 90 | 1011.3 | |
| 20260504231022 | 55 | 0.0 | 0.0 | 0.00 | 0.02 | 0.00 | 90 | 1011.3 | |
| 20260504230019 | 55 | 0.0 | 0.0 | 0.00 | 0.02 | 0.00 | 90 | 1011.4 | |
| 20260504225020 | 55 | 0.0 | 0.0 | 0.00 | 0.02 | 0.00 | 90 | 1011.5 | |
| 20260504224038 | 55 | 0.0 | 0.0 | 0.00 | 0.02 | 0.00 | 90 | 1011.6 | |
| 20260504223018 | 56 | 0.0 | 0.0 | 0.00 | 0.02 | 0.00 | 90 | 1011.7 | |
| 20260504222023 | 56 | 0.0 | 0.0 | 0.00 | 0.02 | 0.00 | 90 | 1011.8 | |
| 20260504221047 | 56 | 0.0 | 0.0 | 0.00 | 0.02 | 0.00 | 90 | 1011.9 | |
| 20260504220041 | 56 | 0.0 | 0.0 | 0.00 | 0.02 | 0.00 | 90 | 1012.0 | |
| 20260504215018 | 56 | 0.0 | 0.0 | 0.00 | 0.02 | 0.02 | 90 | 1012.0 | |
| 20260504214105 | 56 | 0.0 | 0.0 | 0.00 | 0.02 | 0.02 | 90 | 1012.2 | |
| 20260504213017 | 56 | 0.0 | 0.0 | 0.00 | 0.02 | 0.02 | 90 | 1012.2 | |
| 20260504212019 | 56 | 0.0 | 0.0 | 0.00 | 0.02 | 0.02 | 90 | 1012.2 | |
| 20260504211018 | 56 | 0.0 | 0.0 | 0.00 | 0.02 | 0.02 | 90 | 1012.2 | |
| 20260504210019 | 57 | 0.0 | 0.0 | 0.00 | 0.02 | 0.02 | 90 | 1012.2 | |
| 20260504205040 | 57 | 0.0 | 0.0 | 0.00 | 0.02 | 0.02 | 90 | 1012.2 | |
| 20260504204026 | 57 | 0.0 | 0.0 | 0.00 | 0.02 | 0.02 | 90 | 1012.2 | |
| 20260504203020 | 57 | 0.0 | 0.0 | 0.00 | 0.02 | 0.02 | 90 | 1012.3 | |
| 20260504202019 | 57 | 0.0 | 0.0 | 0.00 | 0.02 | 0.02 | 91 | 1012.3 | |
| 20260504201019 | 57 | 0.0 | 0.0 | 0.00 | 0.02 | 0.02 | 91 | 1012.3 | |
| 20260504200018 | 57 | 0.0 | 0.0 | 0.00 | 0.02 | 0.02 | 91 | 1012.3 | |
| 20260504195020 | 58 | 0.0 | 0.0 | 0.00 | 0.02 | 0.02 | 91 | 1012.3 | |
| 20260504194019 | 58 | 0.0 | 0.0 | 0.00 | 0.02 | 0.02 | 91 | 1012.2 | |
| 20260504193025 | 58 | 0.0 | 0.0 | 0.00 | 0.02 | 0.02 | 91 | 1012.2 | |
| 20260504192022 | 58 | 0.0 | 0.0 | 0.00 | 0.02 | 0.02 | 91 | 1012.1 | |
| 20260504191104 | 58 | 0.0 | 0.0 | 0.00 | 0.02 | 0.02 | 91 | 1012.1 | |
| 20260504190018 | 58 | 0.0 | 0.0 | 0.00 | 0.02 | 0.02 | 91 | 1012.0 | |
| 20260504185023 | 59 | 0.0 | 0.0 | 0.00 | 0.02 | 0.02 | 91 | 1012.1 | |
| 20260504184021 | 59 | 0.0 | 0.0 | 0.00 | 0.02 | 0.02 | 91 | 1012.1 | |
| 20260504183023 | 59 | 0.0 | 0.0 | 0.00 | 0.02 | 0.02 | 91 | 1012.1 | |
| 20260504182037 | 59 | 0.0 | 0.0 | 0.00 | 0.02 | 0.02 | 91 | 1012.0 |